sensor_id;sensor_type;location;lat;lon;timestamp;P1;durP1;ratioP1;P2;durP2;ratioP2
6809;SDS011;3443;48.812;9.112;2022-07-17T00:01:22;1.58;;;1.48;;
6809;SDS011;3443;48.812;9.112;2022-07-17T00:03:48;1.30;;;1.30;;
6809;SDS011;3443;48.812;9.112;2022-07-17T00:06:14;1.40;;;1.30;;
6809;SDS011;3443;48.812;9.112;2022-07-17T00:08:40;1.40;;;1.40;;
6809;SDS011;3443;48.812;9.112;2022-07-17T00:11:06;1.23;;;1.23;;
6809;SDS011;3443;48.812;9.112;2022-07-17T00:13:32;1.48;;;1.33;;
6809;SDS011;3443;48.812;9.112;2022-07-17T00:15:58;3.28;;;1.70;;
6809;SDS011;3443;48.812;9.112;2022-07-17T00:18:24;1.75;;;1.35;;
6809;SDS011;3443;48.812;9.112;2022-07-17T00:20:50;1.70;;;1.60;;
6809;SDS011;3443;48.812;9.112;2022-07-17T00:23:17;1.05;;;1.05;;
6809;SDS011;3443;48.812;9.112;2022-07-17T00:25:43;3.15;;;1.60;;
6809;SDS011;3443;48.812;9.112;2022-07-17T00:28:09;1.60;;;1.60;;
6809;SDS011;3443;48.812;9.112;2022-07-17T00:30:36;1.95;;;1.33;;
6809;SDS011;3443;48.812;9.112;2022-07-17T00:33:03;4.38;;;1.70;;
6809;SDS011;3443;48.812;9.112;2022-07-17T00:35:29;1.60;;;1.50;;
6809;SDS011;3443;48.812;9.112;2022-07-17T00:37:55;2.45;;;1.40;;
6809;SDS011;3443;48.812;9.112;2022-07-17T00:40:22;3.40;;;2.08;;
6809;SDS011;3443;48.812;9.112;2022-07-17T00:42:49;1.70;;;1.60;;
6809;SDS011;3443;48.812;9.112;2022-07-17T00:45:15;1.52;;;1.42;;
6809;SDS011;3443;48.812;9.112;2022-07-17T00:47:49;1.52;;;1.52;;
6809;SDS011;3443;48.812;9.112;2022-07-17T00:50:15;1.52;;;1.50;;
6809;SDS011;3443;48.812;9.112;2022-07-17T00:52:42;1.73;;;1.63;;
6809;SDS011;3443;48.812;9.112;2022-07-17T00:55:10;2.10;;;1.50;;
6809;SDS011;3443;48.812;9.112;2022-07-17T00:57:37;1.73;;;1.63;;
6809;SDS011;3443;48.812;9.112;2022-07-17T01:00:05;1.35;;;1.35;;
6809;SDS011;3443;48.812;9.112;2022-07-17T01:02:34;2.30;;;1.50;;
6809;SDS011;3443;48.812;9.112;2022-07-17T01:05:01;1.70;;;1.60;;
6809;SDS011;3443;48.812;9.112;2022-07-17T01:07:27;3.33;;;1.60;;
6809;SDS011;3443;48.812;9.112;2022-07-17T01:09:53;1.60;;;1.50;;
6809;SDS011;3443;48.812;9.112;2022-07-17T01:12:19;1.88;;;1.40;;
6809;SDS011;3443;48.812;9.112;2022-07-17T01:14:46;1.38;;;1.38;;
6809;SDS011;3443;48.812;9.112;2022-07-17T01:17:12;1.50;;;1.40;;
6809;SDS011;3443;48.812;9.112;2022-07-17T01:19:38;1.67;;;1.58;;
6809;SDS011;3443;48.812;9.112;2022-07-17T01:22:04;1.50;;;1.40;;
6809;SDS011;3443;48.812;9.112;2022-07-17T01:24:30;1.70;;;1.60;;
6809;SDS011;3443;48.812;9.112;2022-07-17T01:26:56;1.67;;;1.65;;
6809;SDS011;3443;48.812;9.112;2022-07-17T01:29:24;1.65;;;1.55;;
6809;SDS011;3443;48.812;9.112;2022-07-17T01:31:52;2.47;;;2.00;;
6809;SDS011;3443;48.812;9.112;2022-07-17T01:34:18;1.60;;;1.50;;
6809;SDS011;3443;48.812;9.112;2022-07-17T01:36:44;1.77;;;1.67;;
6809;SDS011;3443;48.812;9.112;2022-07-17T01:39:11;2.78;;;1.63;;
6809;SDS011;3443;48.812;9.112;2022-07-17T01:41:37;1.65;;;1.60;;
6809;SDS011;3443;48.812;9.112;2022-07-17T01:44:03;2.13;;;1.70;;
6809;SDS011;3443;48.812;9.112;2022-07-17T01:46:31;2.50;;;2.00;;
6809;SDS011;3443;48.812;9.112;2022-07-17T01:48:57;3.42;;;1.50;;
6809;SDS011;3443;48.812;9.112;2022-07-17T01:51:25;1.52;;;1.42;;
6809;SDS011;3443;48.812;9.112;2022-07-17T01:53:51;1.67;;;1.58;;
6809;SDS011;3443;48.812;9.112;2022-07-17T01:56:18;2.00;;;1.60;;
6809;SDS011;3443;48.812;9.112;2022-07-17T01:58:44;1.95;;;1.50;;
6809;SDS011;3443;48.812;9.112;2022-07-17T02:01:10;1.70;;;1.60;;
6809;SDS011;3443;48.812;9.112;2022-07-17T02:03:36;1.90;;;1.80;;
6809;SDS011;3443;48.812;9.112;2022-07-17T02:06:03;2.33;;;1.63;;
6809;SDS011;3443;48.812;9.112;2022-07-17T02:08:29;2.08;;;1.98;;
6809;SDS011;3443;48.812;9.112;2022-07-17T02:10:55;1.75;;;1.65;;
6809;SDS011;3443;48.812;9.112;2022-07-17T02:13:21;1.65;;;1.55;;
6809;SDS011;3443;48.812;9.112;2022-07-17T02:15:47;2.67;;;1.67;;
6809;SDS011;3443;48.812;9.112;2022-07-17T02:18:13;1.75;;;1.65;;
6809;SDS011;3443;48.812;9.112;2022-07-17T02:20:40;1.58;;;1.50;;
6809;SDS011;3443;48.812;9.112;2022-07-17T02:23:06;3.35;;;1.75;;
6809;SDS011;3443;48.812;9.112;2022-07-17T02:25:33;1.60;;;1.45;;
6809;SDS011;3443;48.812;9.112;2022-07-17T02:27:59;1.85;;;1.85;;
6809;SDS011;3443;48.812;9.112;2022-07-17T02:30:25;2.50;;;1.83;;
6809;SDS011;3443;48.812;9.112;2022-07-17T02:32:51;1.65;;;1.55;;
6809;SDS011;3443;48.812;9.112;2022-07-17T02:35:17;4.38;;;1.77;;
6809;SDS011;3443;48.812;9.112;2022-07-17T02:37:43;1.95;;;1.85;;
6809;SDS011;3443;48.812;9.112;2022-07-17T02:40:11;1.92;;;1.83;;
6809;SDS011;3443;48.812;9.112;2022-07-17T02:42:37;1.77;;;1.67;;
6809;SDS011;3443;48.812;9.112;2022-07-17T02:45:04;2.03;;;1.85;;
6809;SDS011;3443;48.812;9.112;2022-07-17T02:47:32;1.83;;;1.73;;
6809;SDS011;3443;48.812;9.112;2022-07-17T02:49:58;1.83;;;1.73;;
6809;SDS011;3443;48.812;9.112;2022-07-17T02:52:26;2.00;;;1.90;;
6809;SDS011;3443;48.812;9.112;2022-07-17T02:54:52;2.10;;;1.88;;
6809;SDS011;3443;48.812;9.112;2022-07-17T02:57:20;2.15;;;1.95;;
6809;SDS011;3443;48.812;9.112;2022-07-17T02:59:46;1.70;;;1.65;;
6809;SDS011;3443;48.812;9.112;2022-07-17T03:02:13;1.80;;;1.80;;
6809;SDS011;3443;48.812;9.112;2022-07-17T03:04:39;1.88;;;1.63;;
6809;SDS011;3443;48.812;9.112;2022-07-17T03:07:05;2.25;;;2.13;;
6809;SDS011;3443;48.812;9.112;2022-07-17T03:09:31;2.20;;;2.10;;
6809;SDS011;3443;48.812;9.112;2022-07-17T03:11:57;2.03;;;1.92;;
6809;SDS011;3443;48.812;9.112;2022-07-17T03:14:24;1.70;;;1.60;;
6809;SDS011;3443;48.812;9.112;2022-07-17T03:16:50;1.88;;;1.77;;
6809;SDS011;3443;48.812;9.112;2022-07-17T03:19:16;1.67;;;1.63;;
6809;SDS011;3443;48.812;9.112;2022-07-17T03:21:42;1.88;;;1.80;;
6809;SDS011;3443;48.812;9.112;2022-07-17T03:24:08;2.17;;;2.03;;
6809;SDS011;3443;48.812;9.112;2022-07-17T03:26:34;2.15;;;1.80;;
6809;SDS011;3443;48.812;9.112;2022-07-17T03:29:00;3.65;;;1.75;;
6809;SDS011;3443;48.812;9.112;2022-07-17T03:31:26;2.17;;;2.00;;
6809;SDS011;3443;48.812;9.112;2022-07-17T03:33:52;6.28;;;1.65;;
6809;SDS011;3443;48.812;9.112;2022-07-17T03:36:18;1.60;;;1.60;;
6809;SDS011;3443;48.812;9.112;2022-07-17T03:38:45;1.95;;;1.95;;
6809;SDS011;3443;48.812;9.112;2022-07-17T03:41:11;1.60;;;1.52;;
6809;SDS011;3443;48.812;9.112;2022-07-17T03:43:37;2.63;;;2.00;;
6809;SDS011;3443;48.812;9.112;2022-07-17T03:46:03;1.83;;;1.70;;
6809;SDS011;3443;48.812;9.112;2022-07-17T03:48:29;4.03;;;1.80;;
6809;SDS011;3443;48.812;9.112;2022-07-17T03:50:55;2.08;;;1.98;;
6809;SDS011;3443;48.812;9.112;2022-07-17T03:53:21;4.03;;;1.98;;
6809;SDS011;3443;48.812;9.112;2022-07-17T03:55:47;2.10;;;1.90;;
6809;SDS011;3443;48.812;9.112;2022-07-17T03:58:13;1.80;;;1.70;;
6809;SDS011;3443;48.812;9.112;2022-07-17T04:00:39;1.92;;;1.83;;
6809;SDS011;3443;48.812;9.112;2022-07-17T04:03:05;2.25;;;2.15;;
6809;SDS011;3443;48.812;9.112;2022-07-17T04:05:31;2.42;;;2.22;;
6809;SDS011;3443;48.812;9.112;2022-07-17T04:07:57;3.10;;;2.10;;
6809;SDS011;3443;48.812;9.112;2022-07-17T04:10:23;2.30;;;1.85;;
6809;SDS011;3443;48.812;9.112;2022-07-17T04:12:50;2.22;;;2.13;;
6809;SDS011;3443;48.812;9.112;2022-07-17T04:15:16;2.40;;;2.30;;
6809;SDS011;3443;48.812;9.112;2022-07-17T04:18:02;2.63;;;2.42;;
6809;SDS011;3443;48.812;9.112;2022-07-17T04:20:28;2.08;;;1.98;;
6809;SDS011;3443;48.812;9.112;2022-07-17T04:22:54;2.17;;;1.98;;
6809;SDS011;3443;48.812;9.112;2022-07-17T04:25:20;2.20;;;2.00;;
6809;SDS011;3443;48.812;9.112;2022-07-17T04:27:46;2.10;;;2.00;;
6809;SDS011;3443;48.812;9.112;2022-07-17T04:30:12;1.75;;;1.65;;
6809;SDS011;3443;48.812;9.112;2022-07-17T04:32:38;2.30;;;2.10;;
6809;SDS011;3443;48.812;9.112;2022-07-17T04:35:04;3.30;;;2.00;;
6809;SDS011;3443;48.812;9.112;2022-07-17T04:37:30;2.53;;;2.33;;
6809;SDS011;3443;48.812;9.112;2022-07-17T04:39:57;2.47;;;2.35;;
6809;SDS011;3443;48.812;9.112;2022-07-17T04:42:23;2.22;;;2.03;;
6809;SDS011;3443;48.812;9.112;2022-07-17T04:44:49;2.15;;;2.10;;
6809;SDS011;3443;48.812;9.112;2022-07-17T04:47:15;2.47;;;2.35;;
6809;SDS011;3443;48.812;9.112;2022-07-17T04:49:41;2.40;;;2.30;;
6809;SDS011;3443;48.812;9.112;2022-07-17T04:52:07;2.17;;;2.08;;
6809;SDS011;3443;48.812;9.112;2022-07-17T04:54:33;2.65;;;2.10;;
6809;SDS011;3443;48.812;9.112;2022-07-17T04:56:59;2.50;;;2.30;;
6809;SDS011;3443;48.812;9.112;2022-07-17T04:59:25;2.50;;;2.40;;
6809;SDS011;3443;48.812;9.112;2022-07-17T05:01:51;2.22;;;2.20;;
6809;SDS011;3443;48.812;9.112;2022-07-17T05:04:17;2.30;;;2.20;;
6809;SDS011;3443;48.812;9.112;2022-07-17T05:06:44;2.83;;;2.53;;
6809;SDS011;3443;48.812;9.112;2022-07-17T05:09:10;2.05;;;2.00;;
6809;SDS011;3443;48.812;9.112;2022-07-17T05:11:36;2.28;;;2.08;;
6809;SDS011;3443;48.812;9.112;2022-07-17T05:17:05;2.20;;;2.00;;
6809;SDS011;3443;48.812;9.112;2022-07-17T05:19:31;4.55;;;2.20;;
6809;SDS011;3443;48.812;9.112;2022-07-17T05:21:58;2.35;;;2.20;;
6809;SDS011;3443;48.812;9.112;2022-07-17T05:24:24;2.65;;;2.47;;
6809;SDS011;3443;48.812;9.112;2022-07-17T05:26:50;2.10;;;1.90;;
6809;SDS011;3443;48.812;9.112;2022-07-17T05:29:16;2.13;;;2.03;;
6809;SDS011;3443;48.812;9.112;2022-07-17T05:31:42;2.10;;;2.10;;
6809;SDS011;3443;48.812;9.112;2022-07-17T05:34:08;2.10;;;2.00;;
6809;SDS011;3443;48.812;9.112;2022-07-17T05:36:34;1.95;;;1.85;;
6809;SDS011;3443;48.812;9.112;2022-07-17T05:39:00;2.53;;;2.10;;
6809;SDS011;3443;48.812;9.112;2022-07-17T05:41:26;3.42;;;2.45;;
6809;SDS011;3443;48.812;9.112;2022-07-17T05:43:52;2.30;;;2.20;;
6809;SDS011;3443;48.812;9.112;2022-07-17T05:46:18;2.50;;;1.83;;
6809;SDS011;3443;48.812;9.112;2022-07-17T05:48:44;2.10;;;2.00;;
6809;SDS011;3443;48.812;9.112;2022-07-17T05:51:10;2.92;;;2.28;;
6809;SDS011;3443;48.812;9.112;2022-07-17T05:53:37;2.15;;;2.05;;
6809;SDS011;3443;48.812;9.112;2022-07-17T05:56:03;2.45;;;2.28;;
6809;SDS011;3443;48.812;9.112;2022-07-17T05:58:29;2.83;;;2.22;;
6809;SDS011;3443;48.812;9.112;2022-07-17T06:00:55;2.55;;;2.42;;
6809;SDS011;3443;48.812;9.112;2022-07-17T06:03:21;3.10;;;2.55;;
6809;SDS011;3443;48.812;9.112;2022-07-17T06:05:47;2.70;;;2.20;;
6809;SDS011;3443;48.812;9.112;2022-07-17T06:08:13;2.67;;;2.47;;
6809;SDS011;3443;48.812;9.112;2022-07-17T06:10:39;2.58;;;2.47;;
6809;SDS011;3443;48.812;9.112;2022-07-17T06:13:05;3.70;;;2.60;;
6809;SDS011;3443;48.812;9.112;2022-07-17T06:15:31;5.18;;;2.33;;
6809;SDS011;3443;48.812;9.112;2022-07-17T06:18:02;2.60;;;2.50;;
6809;SDS011;3443;48.812;9.112;2022-07-17T06:20:28;2.35;;;2.20;;
6809;SDS011;3443;48.812;9.112;2022-07-17T06:22:54;2.55;;;2.53;;
6809;SDS011;3443;48.812;9.112;2022-07-17T06:25:20;2.17;;;2.08;;
6809;SDS011;3443;48.812;9.112;2022-07-17T06:27:47;3.00;;;2.80;;
6809;SDS011;3443;48.812;9.112;2022-07-17T06:30:14;2.30;;;2.20;;
6809;SDS011;3443;48.812;9.112;2022-07-17T06:32:40;2.72;;;2.60;;
6809;SDS011;3443;48.812;9.112;2022-07-17T06:35:07;2.70;;;2.50;;
6809;SDS011;3443;48.812;9.112;2022-07-17T06:37:35;2.60;;;2.38;;
6809;SDS011;3443;48.812;9.112;2022-07-17T06:40:02;2.20;;;2.10;;
6809;SDS011;3443;48.812;9.112;2022-07-17T06:42:30;4.93;;;2.03;;
6809;SDS011;3443;48.812;9.112;2022-07-17T06:44:56;2.13;;;1.90;;
6809;SDS011;3443;48.812;9.112;2022-07-17T06:47:23;3.38;;;2.20;;
6809;SDS011;3443;48.812;9.112;2022-07-17T06:49:49;2.42;;;2.33;;
6809;SDS011;3443;48.812;9.112;2022-07-17T06:52:15;2.33;;;2.13;;
6809;SDS011;3443;48.812;9.112;2022-07-17T06:54:41;3.30;;;1.80;;
6809;SDS011;3443;48.812;9.112;2022-07-17T06:57:07;2.20;;;2.10;;
6809;SDS011;3443;48.812;9.112;2022-07-17T06:59:33;2.20;;;2.10;;
6809;SDS011;3443;48.812;9.112;2022-07-17T07:01:59;2.03;;;1.92;;
6809;SDS011;3443;48.812;9.112;2022-07-17T07:04:25;2.20;;;2.00;;
6809;SDS011;3443;48.812;9.112;2022-07-17T07:06:51;2.25;;;1.95;;
6809;SDS011;3443;48.812;9.112;2022-07-17T07:09:17;2.08;;;1.80;;
6809;SDS011;3443;48.812;9.112;2022-07-17T07:11:43;2.25;;;1.70;;
6809;SDS011;3443;48.812;9.112;2022-07-17T07:14:10;1.88;;;1.77;;
6809;SDS011;3443;48.812;9.112;2022-07-17T07:16:36;2.08;;;1.98;;
6809;SDS011;3443;48.812;9.112;2022-07-17T07:19:02;3.00;;;1.58;;
6809;SDS011;3443;48.812;9.112;2022-07-17T07:21:28;1.58;;;1.48;;
6809;SDS011;3443;48.812;9.112;2022-07-17T07:23:54;1.90;;;1.77;;
6809;SDS011;3443;48.812;9.112;2022-07-17T07:26:21;2.95;;;1.73;;
6809;SDS011;3443;48.812;9.112;2022-07-17T07:28:47;1.30;;;1.20;;
6809;SDS011;3443;48.812;9.112;2022-07-17T07:31:13;1.77;;;1.67;;
6809;SDS011;3443;48.812;9.112;2022-07-17T07:33:41;1.95;;;1.52;;
6809;SDS011;3443;48.812;9.112;2022-07-17T07:36:10;1.55;;;1.30;;
6809;SDS011;3443;48.812;9.112;2022-07-17T07:38:36;1.30;;;1.30;;
6809;SDS011;3443;48.812;9.112;2022-07-17T07:41:02;3.95;;;1.95;;
6809;SDS011;3443;48.812;9.112;2022-07-17T07:43:28;1.23;;;1.13;;
6809;SDS011;3443;48.812;9.112;2022-07-17T07:45:56;1.88;;;1.42;;
6809;SDS011;3443;48.812;9.112;2022-07-17T07:48:22;1.27;;;1.17;;
6809;SDS011;3443;48.812;9.112;2022-07-17T07:50:48;3.20;;;1.50;;
6809;SDS011;3443;48.812;9.112;2022-07-17T07:53:15;1.75;;;1.20;;
6809;SDS011;3443;48.812;9.112;2022-07-17T07:55:41;1.27;;;1.27;;
6809;SDS011;3443;48.812;9.112;2022-07-17T07:58:11;1.52;;;1.42;;
6809;SDS011;3443;48.812;9.112;2022-07-17T08:00:38;1.75;;;1.23;;
6809;SDS011;3443;48.812;9.112;2022-07-17T08:03:05;1.65;;;1.00;;
6809;SDS011;3443;48.812;9.112;2022-07-17T08:05:31;1.95;;;1.17;;
6809;SDS011;3443;48.812;9.112;2022-07-17T08:07:57;1.42;;;1.42;;
6809;SDS011;3443;48.812;9.112;2022-07-17T08:10:23;3.72;;;1.08;;
6809;SDS011;3443;48.812;9.112;2022-07-17T08:12:49;0.88;;;0.88;;
6809;SDS011;3443;48.812;9.112;2022-07-17T08:15:16;0.93;;;0.93;;
6809;SDS011;3443;48.812;9.112;2022-07-17T08:17:43;1.15;;;1.08;;
6809;SDS011;3443;48.812;9.112;2022-07-17T08:20:09;0.93;;;0.93;;
6809;SDS011;3443;48.812;9.112;2022-07-17T08:22:36;0.75;;;0.75;;
6809;SDS011;3443;48.812;9.112;2022-07-17T08:25:02;0.90;;;0.90;;
6809;SDS011;3443;48.812;9.112;2022-07-17T08:27:40;1.13;;;1.02;;
6809;SDS011;3443;48.812;9.112;2022-07-17T08:30:07;1.20;;;1.17;;
6809;SDS011;3443;48.812;9.112;2022-07-17T08:32:34;0.80;;;0.80;;
6809;SDS011;3443;48.812;9.112;2022-07-17T08:35:00;1.10;;;1.10;;
6809;SDS011;3443;48.812;9.112;2022-07-17T08:37:26;1.45;;;1.08;;
6809;SDS011;3443;48.812;9.112;2022-07-17T08:39:54;1.17;;;1.17;;
6809;SDS011;3443;48.812;9.112;2022-07-17T08:42:20;1.95;;;1.00;;
6809;SDS011;3443;48.812;9.112;2022-07-17T08:44:46;5.32;;;1.20;;
6809;SDS011;3443;48.812;9.112;2022-07-17T08:47:12;2.03;;;1.00;;
6809;SDS011;3443;48.812;9.112;2022-07-17T08:49:48;1.35;;;1.25;;
6809;SDS011;3443;48.812;9.112;2022-07-17T08:52:14;1.35;;;1.00;;
6809;SDS011;3443;48.812;9.112;2022-07-17T08:54:40;1.70;;;0.95;;
6809;SDS011;3443;48.812;9.112;2022-07-17T08:57:07;2.28;;;1.10;;
6809;SDS011;3443;48.812;9.112;2022-07-17T08:59:36;1.67;;;1.10;;
6809;SDS011;3443;48.812;9.112;2022-07-17T09:02:03;5.97;;;1.23;;
6809;SDS011;3443;48.812;9.112;2022-07-17T09:04:30;1.35;;;1.23;;
6809;SDS011;3443;48.812;9.112;2022-07-17T09:07:02;1.88;;;1.10;;
6809;SDS011;3443;48.812;9.112;2022-07-17T09:09:28;1.50;;;1.15;;
6809;SDS011;3443;48.812;9.112;2022-07-17T09:11:55;0.95;;;0.90;;
6809;SDS011;3443;48.812;9.112;2022-07-17T09:14:21;1.42;;;1.25;;
6809;SDS011;3443;48.812;9.112;2022-07-17T09:19:23;2.65;;;1.10;;
6809;SDS011;3443;48.812;9.112;2022-07-17T09:21:50;3.92;;;1.10;;
6809;SDS011;3443;48.812;9.112;2022-07-17T09:24:16;2.22;;;1.10;;
6809;SDS011;3443;48.812;9.112;2022-07-17T09:26:43;0.88;;;0.88;;
6809;SDS011;3443;48.812;9.112;2022-07-17T09:29:10;0.88;;;0.88;;
6809;SDS011;3443;48.812;9.112;2022-07-17T09:31:37;2.80;;;0.90;;
6809;SDS011;3443;48.812;9.112;2022-07-17T09:34:04;1.20;;;0.82;;
6809;SDS011;3443;48.812;9.112;2022-07-17T09:36:30;0.80;;;0.80;;
6809;SDS011;3443;48.812;9.112;2022-07-17T09:38:57;0.73;;;0.73;;
6809;SDS011;3443;48.812;9.112;2022-07-17T09:41:24;0.90;;;0.90;;
6809;SDS011;3443;48.812;9.112;2022-07-17T09:43:51;0.82;;;0.82;;
6809;SDS011;3443;48.812;9.112;2022-07-17T09:46:27;0.82;;;0.80;;
6809;SDS011;3443;48.812;9.112;2022-07-17T09:51:27;1.02;;;1.02;;
6809;SDS011;3443;48.812;9.112;2022-07-17T09:53:55;0.77;;;0.77;;
6809;SDS011;3443;48.812;9.112;2022-07-17T09:56:22;0.80;;;0.80;;
6809;SDS011;3443;48.812;9.112;2022-07-17T09:58:49;1.02;;;0.95;;
6809;SDS011;3443;48.812;9.112;2022-07-17T10:01:16;1.90;;;1.90;;
6809;SDS011;3443;48.812;9.112;2022-07-17T10:03:43;1.02;;;0.70;;
6809;SDS011;3443;48.812;9.112;2022-07-17T10:06:10;2.47;;;0.70;;
6809;SDS011;3443;48.812;9.112;2022-07-17T10:08:36;0.80;;;0.80;;
6809;SDS011;3443;48.812;9.112;2022-07-17T10:11:03;0.90;;;0.85;;
6809;SDS011;3443;48.812;9.112;2022-07-17T10:13:29;0.70;;;0.70;;
6809;SDS011;3443;48.812;9.112;2022-07-17T10:15:56;0.63;;;0.63;;
6809;SDS011;3443;48.812;9.112;2022-07-17T10:18:33;2.10;;;0.73;;
6809;SDS011;3443;48.812;9.112;2022-07-17T10:21:06;0.60;;;0.60;;
6809;SDS011;3443;48.812;9.112;2022-07-17T10:23:32;0.57;;;0.57;;
6809;SDS011;3443;48.812;9.112;2022-07-17T10:25:58;0.82;;;0.82;;
6809;SDS011;3443;48.812;9.112;2022-07-17T10:28:25;1.33;;;0.70;;
6809;SDS011;3443;48.812;9.112;2022-07-17T10:30:51;1.35;;;0.77;;
6809;SDS011;3443;48.812;9.112;2022-07-17T10:33:18;1.60;;;0.50;;
6809;SDS011;3443;48.812;9.112;2022-07-17T10:35:48;0.50;;;0.50;;
6809;SDS011;3443;48.812;9.112;2022-07-17T10:38:15;0.50;;;0.50;;
6809;SDS011;3443;48.812;9.112;2022-07-17T10:40:41;0.50;;;0.50;;
6809;SDS011;3443;48.812;9.112;2022-07-17T10:43:08;2.10;;;0.60;;
6809;SDS011;3443;48.812;9.112;2022-07-17T10:45:38;3.90;;;0.60;;
6809;SDS011;3443;48.812;9.112;2022-07-17T10:53:11;0.60;;;0.60;;
6809;SDS011;3443;48.812;9.112;2022-07-17T10:55:41;0.98;;;0.50;;
6809;SDS011;3443;48.812;9.112;2022-07-17T10:58:14;1.50;;;1.50;;
6809;SDS011;3443;48.812;9.112;2022-07-17T11:00:40;0.65;;;0.65;;
6809;SDS011;3443;48.812;9.112;2022-07-17T11:03:13;0.70;;;0.70;;
6809;SDS011;3443;48.812;9.112;2022-07-17T11:05:39;0.80;;;0.68;;
6809;SDS011;3443;48.812;9.112;2022-07-17T11:08:05;0.80;;;0.70;;
6809;SDS011;3443;48.812;9.112;2022-07-17T11:10:35;2.55;;;0.60;;
6809;SDS011;3443;48.812;9.112;2022-07-17T11:13:12;0.57;;;0.57;;
6809;SDS011;3443;48.812;9.112;2022-07-17T11:15:39;1.55;;;1.45;;
6809;SDS011;3443;48.812;9.112;2022-07-17T11:18:13;0.90;;;0.60;;
6809;SDS011;3443;48.812;9.112;2022-07-17T11:20:46;0.60;;;0.57;;
6809;SDS011;3443;48.812;9.112;2022-07-17T11:23:13;0.60;;;0.60;;
6809;SDS011;3443;48.812;9.112;2022-07-17T11:25:50;0.70;;;0.70;;
6809;SDS011;3443;48.812;9.112;2022-07-17T11:28:26;0.98;;;0.75;;
6809;SDS011;3443;48.812;9.112;2022-07-17T11:30:52;1.75;;;0.60;;
6809;SDS011;3443;48.812;9.112;2022-07-17T11:33:18;0.52;;;0.52;;
6809;SDS011;3443;48.812;9.112;2022-07-17T11:35:47;0.70;;;0.70;;
6809;SDS011;3443;48.812;9.112;2022-07-17T11:38:14;0.77;;;0.77;;
6809;SDS011;3443;48.812;9.112;2022-07-17T11:40:46;0.80;;;0.80;;
6809;SDS011;3443;48.812;9.112;2022-07-17T11:43:12;1.00;;;1.00;;
6809;SDS011;3443;48.812;9.112;2022-07-17T11:45:38;0.70;;;0.70;;
6809;SDS011;3443;48.812;9.112;2022-07-17T11:48:05;0.63;;;0.63;;
6809;SDS011;3443;48.812;9.112;2022-07-17T11:50:31;1.33;;;0.60;;
6809;SDS011;3443;48.812;9.112;2022-07-17T11:53:00;0.70;;;0.70;;
6809;SDS011;3443;48.812;9.112;2022-07-17T11:55:34;0.88;;;0.82;;
6809;SDS011;3443;48.812;9.112;2022-07-17T11:58:01;0.75;;;0.75;;
6809;SDS011;3443;48.812;9.112;2022-07-17T12:00:27;0.60;;;0.60;;
6809;SDS011;3443;48.812;9.112;2022-07-17T12:03:00;0.57;;;0.55;;
6809;SDS011;3443;48.812;9.112;2022-07-17T12:05:27;0.70;;;0.70;;
6809;SDS011;3443;48.812;9.112;2022-07-17T12:07:54;0.80;;;0.80;;
6809;SDS011;3443;48.812;9.112;2022-07-17T12:10:21;1.02;;;0.80;;
6809;SDS011;3443;48.812;9.112;2022-07-17T12:12:51;1.00;;;0.70;;
6809;SDS011;3443;48.812;9.112;2022-07-17T12:15:18;0.95;;;0.70;;
6809;SDS011;3443;48.812;9.112;2022-07-17T12:17:45;0.60;;;0.60;;
6809;SDS011;3443;48.812;9.112;2022-07-17T12:20:11;0.63;;;0.63;;
6809;SDS011;3443;48.812;9.112;2022-07-17T12:22:47;1.17;;;0.60;;
6809;SDS011;3443;48.812;9.112;2022-07-17T12:25:22;0.68;;;0.68;;
6809;SDS011;3443;48.812;9.112;2022-07-17T12:27:49;0.95;;;0.60;;
6809;SDS011;3443;48.812;9.112;2022-07-17T12:30:15;2.40;;;0.70;;
6809;SDS011;3443;48.812;9.112;2022-07-17T12:32:41;2.20;;;0.80;;
6809;SDS011;3443;48.812;9.112;2022-07-17T12:35:07;0.57;;;0.57;;
6809;SDS011;3443;48.812;9.112;2022-07-17T12:37:33;2.08;;;0.68;;
6809;SDS011;3443;48.812;9.112;2022-07-17T12:39:59;0.77;;;0.60;;
6809;SDS011;3443;48.812;9.112;2022-07-17T12:42:25;0.65;;;0.63;;
6809;SDS011;3443;48.812;9.112;2022-07-17T12:44:52;0.60;;;0.60;;
6809;SDS011;3443;48.812;9.112;2022-07-17T12:47:18;1.67;;;0.70;;
6809;SDS011;3443;48.812;9.112;2022-07-17T12:49:44;0.80;;;0.80;;
6809;SDS011;3443;48.812;9.112;2022-07-17T12:52:10;0.45;;;0.45;;
6809;SDS011;3443;48.812;9.112;2022-07-17T12:54:38;0.70;;;0.60;;
6809;SDS011;3443;48.812;9.112;2022-07-17T12:57:06;0.70;;;0.70;;
6809;SDS011;3443;48.812;9.112;2022-07-17T12:59:32;0.80;;;0.80;;
6809;SDS011;3443;48.812;9.112;2022-07-17T13:01:59;0.75;;;0.70;;
6809;SDS011;3443;48.812;9.112;2022-07-17T13:04:25;0.93;;;0.85;;
6809;SDS011;3443;48.812;9.112;2022-07-17T13:06:52;0.82;;;0.63;;
6809;SDS011;3443;48.812;9.112;2022-07-17T13:09:18;0.60;;;0.60;;
6809;SDS011;3443;48.812;9.112;2022-07-17T13:11:44;1.00;;;0.90;;
6809;SDS011;3443;48.812;9.112;2022-07-17T13:14:10;0.77;;;0.77;;
6809;SDS011;3443;48.812;9.112;2022-07-17T13:16:39;0.88;;;0.88;;
6809;SDS011;3443;48.812;9.112;2022-07-17T13:19:05;0.90;;;0.90;;
6809;SDS011;3443;48.812;9.112;2022-07-17T13:21:31;0.75;;;0.75;;
6809;SDS011;3443;48.812;9.112;2022-07-17T13:23:58;0.65;;;0.65;;
6809;SDS011;3443;48.812;9.112;2022-07-17T13:26:24;1.00;;;0.88;;
6809;SDS011;3443;48.812;9.112;2022-07-17T13:28:50;2.50;;;0.80;;
6809;SDS011;3443;48.812;9.112;2022-07-17T13:31:16;0.70;;;0.70;;
6809;SDS011;3443;48.812;9.112;2022-07-17T13:33:42;0.90;;;0.90;;
6809;SDS011;3443;48.812;9.112;2022-07-17T13:36:08;0.60;;;0.60;;
6809;SDS011;3443;48.812;9.112;2022-07-17T13:38:35;5.00;;;1.00;;
6809;SDS011;3443;48.812;9.112;2022-07-17T13:41:01;0.73;;;0.73;;
6809;SDS011;3443;48.812;9.112;2022-07-17T13:43:27;0.52;;;0.52;;
6809;SDS011;3443;48.812;9.112;2022-07-17T13:45:53;0.63;;;0.63;;
6809;SDS011;3443;48.812;9.112;2022-07-17T13:48:19;1.58;;;0.82;;
6809;SDS011;3443;48.812;9.112;2022-07-17T13:50:46;2.60;;;0.75;;
6809;SDS011;3443;48.812;9.112;2022-07-17T13:53:12;0.70;;;0.70;;
6809;SDS011;3443;48.812;9.112;2022-07-17T13:55:38;0.65;;;0.65;;
6809;SDS011;3443;48.812;9.112;2022-07-17T13:58:05;0.70;;;0.70;;
6809;SDS011;3443;48.812;9.112;2022-07-17T14:00:33;1.50;;;0.70;;
6809;SDS011;3443;48.812;9.112;2022-07-17T14:02:59;1.05;;;0.80;;
6809;SDS011;3443;48.812;9.112;2022-07-17T14:05:25;1.33;;;0.77;;
6809;SDS011;3443;48.812;9.112;2022-07-17T14:07:51;1.13;;;0.85;;
6809;SDS011;3443;48.812;9.112;2022-07-17T14:10:17;2.30;;;0.75;;
6809;SDS011;3443;48.812;9.112;2022-07-17T14:12:43;0.80;;;0.63;;
6809;SDS011;3443;48.812;9.112;2022-07-17T14:15:10;1.75;;;0.60;;
6809;SDS011;3443;48.812;9.112;2022-07-17T14:17:36;0.88;;;0.65;;
6809;SDS011;3443;48.812;9.112;2022-07-17T14:20:03;1.85;;;0.50;;
6809;SDS011;3443;48.812;9.112;2022-07-17T14:22:29;0.70;;;0.70;;
6809;SDS011;3443;48.812;9.112;2022-07-17T14:24:55;0.50;;;0.50;;
6809;SDS011;3443;48.812;9.112;2022-07-17T14:27:21;1.27;;;0.70;;
6809;SDS011;3443;48.812;9.112;2022-07-17T14:29:48;0.95;;;0.60;;
6809;SDS011;3443;48.812;9.112;2022-07-17T14:32:14;0.68;;;0.63;;
6809;SDS011;3443;48.812;9.112;2022-07-17T14:34:41;1.65;;;0.70;;
6809;SDS011;3443;48.812;9.112;2022-07-17T14:37:07;0.75;;;0.60;;
6809;SDS011;3443;48.812;9.112;2022-07-17T14:39:33;2.63;;;0.73;;
6809;SDS011;3443;48.812;9.112;2022-07-17T14:41:59;0.70;;;0.60;;
6809;SDS011;3443;48.812;9.112;2022-07-17T14:44:26;0.47;;;0.47;;
6809;SDS011;3443;48.812;9.112;2022-07-17T14:46:52;0.68;;;0.68;;
6809;SDS011;3443;48.812;9.112;2022-07-17T14:49:18;0.50;;;0.50;;
6809;SDS011;3443;48.812;9.112;2022-07-17T14:51:44;0.68;;;0.68;;
6809;SDS011;3443;48.812;9.112;2022-07-17T14:54:11;0.55;;;0.55;;
6809;SDS011;3443;48.812;9.112;2022-07-17T14:56:37;1.75;;;0.60;;
6809;SDS011;3443;48.812;9.112;2022-07-17T14:59:03;0.93;;;0.93;;
6809;SDS011;3443;48.812;9.112;2022-07-17T15:01:29;0.60;;;0.60;;
6809;SDS011;3443;48.812;9.112;2022-07-17T15:03:55;0.52;;;0.52;;
6809;SDS011;3443;48.812;9.112;2022-07-17T15:06:21;0.70;;;0.70;;
6809;SDS011;3443;48.812;9.112;2022-07-17T15:08:47;0.60;;;0.60;;
6809;SDS011;3443;48.812;9.112;2022-07-17T15:11:32;0.90;;;0.60;;
6809;SDS011;3443;48.812;9.112;2022-07-17T15:13:58;0.68;;;0.68;;
6809;SDS011;3443;48.812;9.112;2022-07-17T15:16:24;0.77;;;0.60;;
6809;SDS011;3443;48.812;9.112;2022-07-17T15:18:51;0.73;;;0.73;;
6809;SDS011;3443;48.812;9.112;2022-07-17T15:21:17;0.60;;;0.60;;
6809;SDS011;3443;48.812;9.112;2022-07-17T15:23:43;0.60;;;0.60;;
6809;SDS011;3443;48.812;9.112;2022-07-17T15:26:09;0.63;;;0.63;;